Aérodrome :
LOGIN :

S'inscrire | Disclaimer

   EN    FR    IT 

 










Légende :    VFR   VFR Marginal   IFR   IFR Intensif   IFR Très Intensif
Visi : 
Plafond : 
>= 8 km
>= 3000ft
5 à 8 km
1000 à 3000 ft
1500m à 5 km
500 à 1000 ft
800 à 1500m
200 à 500 ft
< 800m
< 200 ft
Symboles :   Orages  Brouillard  Fortes neiges  Fortes précipitations  Vent > 20 kt
SIGMETs :   Divers  Orages  Givrage  Turbulence  Onde Orograph.  Cendres Volcan.






- Altitude de l'aérodrome : 17 ft
- Code IATA : GRQ


EHGG - Groningen Eelde

DERNIER METAR :
  • 290555Z AUTO 01014KT 330V050 9999 SCT034 BKN040 04/M03 Q1028 NOSIG

METARs EXPIRÉS :
  • 290525Z AUTO 01012KT 340V040 9999 SCT034 04/M02 Q1028 NOSIG
  • 290455Z AUTO 01010KT 320V050 9999 NCD 04/M02 Q1027 NOSIG
  • 290425Z AUTO 01009KT 330V050 9999 NCD 05/M02 Q1027 NOSIG
  • 290355Z AUTO 02011KT 340V050 9999 NCD 05/M02 Q1027
  • 290325Z AUTO 01009KT 340V050 9999 NCD 05/M01 Q1027
  • 290255Z AUTO 01011KT 330V040 9999 NCD 05/M01 Q1026

TAF TAF EHGG
Valide du 29 à 06h jusqu'au 30 à 12h UTC


290516Z 2906/3012 02014KT CAVOK
BECMG 2906/2909 03022G35KT
PROB30
TEMPO 2908/2911 3000 -SHSNRAGS FEW020CB
BECMG 2917/2920 01008KT
TEMPO 3004/3012 6000 -SHRA RA SCT018CB BKN020
PROB40
TEMPO 3004/3006 1500 -SHSN SN BKN008 SCT015CB
BECMG 3008/3010 34012KT



MET'MAP, la Météo Aéronautique d'un coup d'oeil ! - Copyright ORBIFLY Décembre 2007 - Disclaimer

ORBIFLY MET'MAP TEAM :

Programmation & Développement : Alexandra Zaïnal
Sur une idée originale de : Baudouin d'Aumeries
Assistance à la programmation : Marc-Olivier Méhu
Soutien technique & logistique : Manuel Goepfert

Contact : metmap@orbifly.com




SOURCES & CREDITS :

   NOAA